Time;durP1;ratioP1;P1;durP2;ratioP2;P2;SDS_P1;SDS_P2;PMS_P1;PMS_P2;Temp;Humidity;BMP_temperature;BMP_pressure;BME280_temperature;BME280_humidity;BME280_pressure;Samples;Min_cycle;Max_cycle;Signal;HPM_P1;HPM_P2
2022/02/11 00:02:06;;;;;;;26.47;17.30;;;9.10;1.00;;;;;;5091794;28;20198;-77
2022/02/11 00:05:02;;;;;;;24.17;17.30;;;9.10;1.00;;;;;;5091607;28;20287;-76
2022/02/11 00:07:29;;;;;;;24.03;18.33;;;9.00;1.00;;;;;;5091411;28;20650;-74
2022/02/11 00:09:56;;;;;;;24.53;18.97;;;9.00;1.00;;;;;;5091919;28;20253;-77
2022/02/11 00:12:23;;;;;;;23.67;17.57;;;9.00;1.00;;;;;;5091417;28;20201;-77
2022/02/11 00:15:00;;;;;;;29.80;20.77;;;9.10;1.00;;;;;;5091484;28;20554;-75
2022/02/11 00:17:29;;;;;;;23.93;15.77;;;9.00;1.00;;;;;;5091749;28;20233;-76
2022/02/11 00:19:56;;;;;;;20.20;17.00;;;8.90;1.00;;;;;;5091709;28;20209;-77
2022/02/11 00:22:23;;;;;;;24.60;17.87;;;8.90;1.00;;;;;;5090674;28;20263;-75
2022/02/11 00:24:53;;;;;;;28.80;18.47;;;8.90;1.00;;;;;;5091231;28;20247;-75
2022/02/11 00:32:54;;;;;;;21.83;17.40;;;8.60;1.00;;;;;;5091243;28;20263;-76
2022/02/11 00:35:28;;;;;;;22.83;17.03;;;8.70;1.00;;;;;;5090913;28;20689;-77
2022/02/11 00:37:56;;;;;;;21.63;16.43;;;8.80;1.00;;;;;;5091329;28;20205;-77
2022/02/11 00:40:42;;;;;;;22.03;17.27;;;8.80;1.00;;;;;;5090682;28;20210;-77
2022/02/11 00:46:13;;;;;;;19.70;14.90;;;8.80;1.00;;;;;;5080780;28;20205;-77
2022/02/11 01:02:25;;;;;;;18.60;15.17;;;9.00;1.00;;;;;;5090662;28;20305;-81
2022/02/11 01:04:54;;;;;;;22.40;14.27;;;9.10;1.00;;;;;;5090966;28;20208;-75
2022/02/11 01:07:21;;;;;;;22.77;15.40;;;9.00;1.00;;;;;;5090315;28;20665;-76
2022/02/11 01:09:48;;;;;;;23.57;14.97;;;9.00;1.00;;;;;;5090846;28;20550;-75
2022/02/11 01:12:15;;;;;;;18.57;14.83;;;9.00;1.00;;;;;;5090330;28;20204;-74
2022/02/11 01:14:49;;;;;;;20.63;14.80;;;8.90;1.00;;;;;;5090657;28;20209;-80
2022/02/11 01:17:21;;;;;;;19.80;14.00;;;8.90;1.00;;;;;;5090493;28;20265;-74
2022/02/11 01:19:56;;;;;;;21.33;15.63;;;8.90;1.00;;;;;;5090717;28;20209;-79
2022/02/11 01:22:41;;;;;;;20.80;13.93;;;8.90;1.00;;;;;;5090459;28;20287;-79
2022/02/11 01:28:04;;;;;;;17.40;14.87;;;8.90;1.00;;;;;;5066103;28;20224;-76
2022/02/11 01:33:37;;;;;;;21.87;14.80;;;8.90;1.00;;;;;;5090437;28;20208;-80
2022/02/11 01:36:17;;;;;;;23.90;16.07;;;9.10;1.00;;;;;;5091932;28;20236;-80
2022/02/11 01:39:05;;;;;;;22.00;14.77;;;9.20;1.00;;;;;;5094407;28;20205;-79
2022/02/11 01:44:42;;;;;;;21.50;14.00;;;9.10;1.00;;;;;;5093940;28;20204;-75
2022/02/11 01:47:39;;;;;;;20.93;12.40;;;9.20;1.00;;;;;;5094000;28;20215;-75
2022/02/11 01:50:32;;;;;;;23.00;14.67;;;9.40;1.00;;;;;;5093495;28;20186;-76
2022/02/11 01:53:09;;;;;;;18.70;13.50;;;9.40;1.00;;;;;;5094034;28;20216;-75
2022/02/11 01:56:00;;;;;;;17.37;13.03;;;9.30;1.00;;;;;;5094087;28;20201;-76
2022/02/11 02:01:41;;;;;;;19.37;13.23;;;9.20;1.00;;;;;;5093893;28;20263;-76
2022/02/11 02:13:04;;;;;;;19.00;12.33;;;9.30;1.00;;;;;;5094105;28;20255;-76
2022/02/11 02:26:59;;;;;;;19.17;11.50;;;9.50;1.00;;;;;;5051412;28;20241;-79
2022/02/11 02:35:19;;;;;;;12.40;10.03;;;9.50;1.00;;;;;;5093671;28;20212;-79
2022/02/11 02:38:16;;;;;;;12.37;9.73;;;9.50;1.00;;;;;;5093370;28;20240;-78
2022/02/11 02:57:36;;;;;;;13.23;9.33;;;9.70;1.00;;;;;;5091135;28;20228;-79
2022/02/11 03:00:41;;;;;;;12.13;10.47;;;9.70;1.00;;;;;;5090678;28;20298;-79
2022/02/11 03:14:53;;;;;;;11.20;8.17;;;9.80;1.00;;;;;;5112433;28;20284;-78
2022/02/11 03:17:55;;;;;;;12.07;9.23;;;9.80;1.00;;;;;;5109139;28;20232;-79
2022/02/11 03:34:30;;;;;;;12.10;8.43;;;9.90;1.00;;;;;;5111966;28;20258;-78
2022/02/11 03:34:49;;;;;;;9.77;8.03;;;10.00;1.00;;;;;;5112239;28;20208;-80
2022/02/11 03:51:29;;;;;;;12.87;7.03;;;10.10;1.00;;;;;;5111985;28;20639;-77
2022/02/11 04:22:05;;;;;;;12.07;7.93;;;10.20;1.00;;;;;;5068833;28;20236;-77
2022/02/11 05:00:11;;;;;;;17.43;10.63;;;10.30;1.00;;;;;;5110784;28;20230;-77
2022/02/11 05:02:39;;;;;;;15.07;8.67;;;10.30;1.00;;;;;;5110928;28;20204;-82
2022/02/11 05:05:08;;;;;;;10.23;7.93;;;10.30;1.00;;;;;;5111183;28;20208;-82
2022/02/11 05:07:36;;;;;;;15.87;9.00;;;10.30;1.00;;;;;;5110963;28;20668;-81
2022/02/11 05:10:03;;;;;;;15.90;7.90;;;10.40;1.00;;;;;;5112693;28;20208;-78
2022/02/11 05:12:32;;;;;;;14.60;8.10;;;10.40;1.00;;;;;;5115144;28;20615;-83
2022/02/11 05:14:59;;;;;;;11.67;8.53;;;10.40;1.00;;;;;;5106154;28;20205;-82
2022/02/11 05:17:26;;;;;;;11.17;7.10;;;10.40;1.00;;;;;;5110947;28;20644;-82
2022/02/11 05:19:53;;;;;;;15.37;6.83;;;10.40;1.00;;;;;;5115282;28;20201;-82
2022/02/11 05:22:20;;;;;;;11.87;6.57;;;10.40;1.00;;;;;;5114412;28;20264;-80
2022/02/11 05:24:46;;;;;;;12.67;7.70;;;10.40;1.00;;;;;;5115291;28;20205;-81
2022/02/11 05:27:13;;;;;;;17.30;9.17;;;10.40;1.00;;;;;;5114081;28;20205;-79
2022/02/11 05:29:42;;;;;;;15.07;8.40;;;10.40;1.00;;;;;;5114034;28;20680;-81
2022/02/11 05:32:09;;;;;;;18.30;9.20;;;10.40;1.00;;;;;;5110664;28;20200;-77
2022/02/11 05:34:36;;;;;;;11.17;6.73;;;10.40;1.00;;;;;;5087019;28;20215;-79
2022/02/11 05:37:04;;;;;;;9.70;7.17;;;10.40;1.00;;;;;;5114229;28;20232;-78
2022/02/11 05:39:31;;;;;;;14.33;7.90;;;10.40;1.00;;;;;;5113554;28;20265;-78
2022/02/11 05:41:58;;;;;;;13.90;7.57;;;10.40;1.00;;;;;;5114858;28;20205;-78
2022/02/11 05:44:25;;;;;;;11.70;8.73;;;10.40;1.00;;;;;;5110806;28;20214;-78
2022/02/11 05:46:53;;;;;;;17.60;7.97;;;10.40;1.00;;;;;;5104122;28;20208;-74
2022/02/11 05:49:21;;;;;;;13.47;7.57;;;10.40;1.00;;;;;;5113527;28;20265;-77
2022/02/11 05:51:48;;;;;;;10.77;8.03;;;10.40;1.00;;;;;;5103305;28;20212;-76
2022/02/11 05:54:15;;;;;;;9.03;7.17;;;10.40;1.00;;;;;;5108131;28;20217;-77
2022/02/11 05:56:42;;;;;;;16.63;7.83;;;10.40;1.00;;;;;;5112175;28;20643;-79
2022/02/11 05:59:09;;;;;;;13.30;8.73;;;10.50;1.00;;;;;;5114270;28;20257;-78
2022/02/11 06:01:36;;;;;;;11.83;6.97;;;10.70;1.00;;;;;;5113967;28;20201;-78
2022/02/11 06:04:04;;;;;;;15.27;7.90;;;10.60;1.00;;;;;;5114028;28;20213;-77
2022/02/11 06:06:31;;;;;;;16.23;7.07;;;10.50;1.00;;;;;;5114719;28;20204;-76
2022/02/11 06:08:58;;;;;;;17.40;7.17;;;10.40;1.00;;;;;;5105933;27;20197;-76
2022/02/11 06:11:29;;;;;;;13.23;6.67;;;10.40;1.00;;;;;;5093674;28;20205;-79
2022/02/11 06:13:56;;;;;;;19.70;8.60;;;10.40;1.00;;;;;;5094214;28;20206;-78
2022/02/11 06:16:23;;;;;;;18.13;9.70;;;10.30;1.00;;;;;;5093035;28;20304;-78
2022/02/11 06:18:51;;;;;;;14.53;7.57;;;10.30;1.00;;;;;;5093847;28;20742;-82
2022/02/11 06:21:19;;;;;;;13.97;8.23;;;10.30;1.00;;;;;;5091422;28;20201;-82
2022/02/11 06:23:46;;;;;;;27.23;11.23;;;10.30;1.00;;;;;;5108682;28;20728;-83
2022/02/11 06:26:13;;;;;;;13.23;8.23;;;10.30;1.00;;;;;;5110226;28;20569;-82
2022/02/11 06:28:40;;;;;;;12.57;8.63;;;10.20;1.00;;;;;;5096226;28;20914;-80
2022/02/11 06:31:07;;;;;;;14.83;8.30;;;10.20;1.00;;;;;;5092342;28;20224;-82
2022/02/11 06:33:34;;;;;;;14.73;8.23;;;10.20;1.00;;;;;;5096796;28;20209;-80
2022/02/11 06:36:01;;;;;;;21.27;9.23;;;10.20;1.00;;;;;;5093096;28;20247;-80
2022/02/11 06:38:29;;;;;;;13.57;8.63;;;10.20;1.00;;;;;;5108462;28;20229;-84
2022/02/11 06:40:57;;;;;;;16.63;9.90;;;10.20;1.00;;;;;;5093802;28;20753;-83
2022/02/11 06:43:24;;;;;;;20.60;9.10;;;10.20;1.00;;;;;;5106912;28;20294;-83
2022/02/11 06:45:51;;;;;;;17.43;7.90;;;10.20;1.00;;;;;;5082429;28;20263;-81
2022/02/11 06:48:21;;;;;;;13.33;8.43;;;10.20;1.00;;;;;;5107740;28;20209;-80
2022/02/11 06:50:48;;;;;;;21.17;13.03;;;10.10;1.00;;;;;;5113580;28;20204;-82
2022/02/11 06:53:15;;;;;;;16.73;10.97;;;10.10;1.00;;;;;;5109851;28;20217;-83
2022/02/11 06:55:44;;;;;;;26.47;15.23;;;10.10;1.00;;;;;;5093103;28;20300;-82
2022/02/11 06:58:11;;;;;;;17.77;11.90;;;10.10;1.00;;;;;;5092571;28;20274;-80
2022/02/11 07:00:40;;;;;;;18.30;12.23;;;10.10;1.00;;;;;;5093335;28;20290;-80
2022/02/11 07:03:07;;;;;;;20.07;12.13;;;10.10;1.00;;;;;;5092644;28;20742;-81
2022/02/11 07:05:35;;;;;;;22.60;13.47;;;10.20;1.00;;;;;;5093127;28;20205;-82
2022/02/11 07:08:02;;;;;;;18.57;10.57;;;10.20;1.00;;;;;;5092008;28;20198;-79
2022/02/11 07:10:29;;;;;;;16.37;10.20;;;10.20;1.00;;;;;;5076216;28;20201;-76
2022/02/11 07:12:58;;;;;;;17.07;10.67;;;10.20;1.00;;;;;;5095883;28;20209;-80
2022/02/11 07:15:25;;;;;;;18.87;9.37;;;10.10;1.00;;;;;;5094081;28;20217;-80
2022/02/11 07:17:52;;;;;;;15.37;8.47;;;10.10;1.00;;;;;;5112748;28;20236;-79
2022/02/11 07:20:19;;;;;;;14.73;9.37;;;10.10;1.00;;;;;;5112021;28;20680;-77
2022/02/11 07:22:46;;;;;;;17.77;9.17;;;10.00;1.00;;;;;;5105457;28;20209;-78
2022/02/11 07:25:14;;;;;;;16.33;8.80;;;10.00;1.00;;;;;;5105477;28;20217;-78
2022/02/11 07:27:42;;;;;;;19.53;8.80;;;10.00;1.00;;;;;;5105979;28;20744;-78
2022/02/11 07:30:11;;;;;;;31.97;17.77;;;10.00;1.00;;;;;;5112282;28;20665;-79
2022/02/11 07:32:38;;;;;;;14.13;8.23;;;10.00;1.00;;;;;;5111932;28;20649;-78
2022/02/11 07:35:05;;;;;;;29.90;16.93;;;10.10;1.00;;;;;;5111590;28;20209;-79
2022/02/11 07:37:33;;;;;;;22.00;13.10;;;10.00;1.00;;;;;;5112268;28;20224;-80
2022/02/11 07:40:00;;;;;;;24.07;12.70;;;10.00;1.00;;;;;;5112718;28;20675;-78
2022/02/11 07:42:28;;;;;;;9.57;5.97;;;10.00;1.00;;;;;;5113037;28;20208;-81
2022/02/11 07:44:57;;;;;;;11.20;5.83;;;10.00;1.00;;;;;;5105122;28;20208;-80
2022/02/11 07:47:26;;;;;;;17.87;8.57;;;10.10;1.00;;;;;;5071775;28;20210;-79
2022/02/11 07:49:54;;;;;;;9.80;5.57;;;10.10;1.00;;;;;;5071822;28;20306;-79
2022/02/11 07:52:21;;;;;;;14.07;6.00;;;10.10;1.00;;;;;;5071339;28;20212;-81
2022/02/11 07:54:48;;;;;;;10.53;6.77;;;10.00;1.00;;;;;;5071722;28;20251;-81
2022/02/11 07:57:15;;;;;;;8.37;5.20;;;9.90;1.00;;;;;;5071611;28;20275;-81
2022/02/11 07:59:41;;;;;;;9.57;5.17;;;9.90;1.00;;;;;;5072064;28;20244;-77
2022/02/11 08:02:10;;;;;;;9.10;4.77;;;10.00;1.00;;;;;;5087023;28;20221;-79
2022/02/11 08:04:39;;;;;;;9.27;5.13;;;10.00;1.00;;;;;;5097740;28;20208;-77
2022/02/11 08:07:05;;;;;;;9.13;4.93;;;10.00;1.00;;;;;;5101618;28;20201;-77
2022/02/11 08:09:32;;;;;;;10.80;5.00;;;10.00;1.00;;;;;;5104698;28;20209;-81
2022/02/11 08:12:00;;;;;;;9.63;5.17;;;10.10;1.00;;;;;;5111260;28;20280;-75
2022/02/11 08:14:27;;;;;;;5.87;4.40;;;10.20;1.00;;;;;;5072691;28;20225;-85
2022/02/11 08:16:54;;;;;;;9.57;5.03;;;10.20;1.00;;;;;;5072313;28;20210;-85
2022/02/11 08:19:22;;;;;;;10.07;5.70;;;10.40;1.00;;;;;;5078817;28;20225;-83
2022/02/11 08:21:51;;;;;;;8.50;5.87;;;10.40;1.00;;;;;;5092209;28;20247;-85
2022/02/11 08:24:19;;;;;;;9.33;4.73;;;10.40;1.00;;;;;;5082739;28;20205;-81
2022/02/11 08:26:46;;;;;;;9.43;7.17;;;10.40;1.00;;;;;;5112416;28;20262;-84
2022/02/11 08:29:13;;;;;;;8.37;4.90;;;10.50;1.00;;;;;;5112427;28;20204;-83
2022/02/11 08:31:40;;;;;;;9.03;5.20;;;10.70;1.00;;;;;;5099610;28;20201;-81
2022/02/11 08:34:07;;;;;;;6.50;5.37;;;10.90;1.00;;;;;;5092064;28;20276;-81
2022/02/11 08:36:34;;;;;;;9.93;4.30;;;11.10;1.00;;;;;;5096988;28;20205;-84
2022/02/11 08:39:02;;;;;;;9.00;5.37;;;11.40;1.00;;;;;;5101665;28;20285;-84
2022/02/11 08:41:29;;;;;;;6.73;4.93;;;11.80;1.00;;;;;;5109845;28;20261;-78
2022/02/11 08:43:56;;;;;;;9.77;5.43;;;12.00;1.00;;;;;;5101713;28;20201;-83
2022/02/11 08:46:24;;;;;;;8.37;7.10;;;12.60;1.00;;;;;;5093367;28;20664;-81
2022/02/11 08:48:51;;;;;;;6.83;4.57;;;12.60;1.00;;;;;;5100088;28;20209;-84
2022/02/11 08:51:18;;;;;;;7.63;5.27;;;12.90;1.00;;;;;;5111800;28;20201;-85
2022/02/11 08:53:45;;;;;;;19.67;17.63;;;12.70;1.00;;;;;;5109106;28;20236;-83
2022/02/11 08:56:14;;;;;;;5.60;4.80;;;12.60;1.00;;;;;;5108237;28;20202;-85
2022/02/11 08:58:41;;;;;;;8.00;4.40;;;13.10;1.00;;;;;;5086089;28;20233;-87
2022/02/11 09:01:08;;;;;;;7.90;4.40;;;13.10;1.00;;;;;;5091397;28;20952;-87
2022/02/11 09:03:35;;;;;;;12.50;5.50;;;13.00;1.00;;;;;;5092162;28;20227;-87
2022/02/11 09:06:04;;;;;;;12.38;4.25;;;12.70;1.00;;;;;;5091634;28;20296;-76
2022/02/11 09:08:33;;;;;;;9.23;4.28;;;12.40;1.00;;;;;;5091667;28;20208;-82
2022/02/11 09:11:00;;;;;;;6.43;4.50;;;12.40;1.00;;;;;;5090735;28;20688;-80
2022/02/11 09:13:29;;;;;;;5.35;4.45;;;12.60;1.00;;;;;;5092722;28;20205;-73
2022/02/11 09:15:56;;;;;;;7.47;4.47;;;12.40;1.00;;;;;;5096947;28;20235;-74
2022/02/11 09:18:23;;;;;;;6.90;4.10;;;12.40;1.00;;;;;;5090067;28;20237;-70
2022/02/11 09:20:50;;;;;;;9.50;3.67;;;12.10;1.00;;;;;;5084375;28;20270;-69
2022/02/11 09:23:20;;;;;;;12.48;5.97;;;11.80;1.00;;;;;;5108067;28;20624;-81
2022/02/11 09:25:47;;;;;;;7.28;3.55;;;12.50;1.00;;;;;;5099248;28;20212;-81
2022/02/11 09:28:15;;;;;;;7.47;4.05;;;12.90;1.00;;;;;;5104735;28;20256;-81
2022/02/11 09:30:43;;;;;;;7.50;4.35;;;14.00;1.00;;;;;;5111340;28;20254;-82
2022/02/11 09:33:11;;;;;;;12.80;4.00;;;13.40;1.00;;;;;;5091528;28;20246;-82
2022/02/11 09:35:38;;;;;;;4.68;4.07;;;13.50;1.00;;;;;;5096542;28;20296;-80
2022/02/11 09:38:05;;;;;;;10.07;4.93;;;14.30;1.00;;;;;;5092643;28;20643;-80
2022/02/11 09:40:39;;;;;;;5.88;3.63;;;14.20;1.00;;;;;;5101950;28;20209;-79
2022/02/11 09:43:08;;;;;;;9.75;4.75;;;13.50;1.00;;;;;;5098055;28;20209;-70
2022/02/11 09:45:35;;;;;;;6.70;5.00;;;12.60;1.00;;;;;;5095953;28;20648;-81
2022/02/11 09:48:05;;;;;;;9.20;5.53;;;12.60;1.00;;;;;;5082256;28;20259;-76
2022/02/11 09:50:32;;;;;;;4.68;4.15;;;13.10;1.00;;;;;;5104602;28;20205;-83
2022/02/11 09:52:59;;;;;;;8.82;4.43;;;14.00;1.00;;;;;;5095075;28;20581;-81
2022/02/11 09:55:34;;;;;;;9.35;4.85;;;15.20;1.00;;;;;;5110189;28;20630;-88
2022/02/11 09:58:05;;;;;;;9.00;6.03;;;15.90;1.00;;;;;;5074301;28;20229;-83
2022/02/11 10:00:34;;;;;;;8.60;5.97;;;17.60;1.00;;;;;;5075040;28;20732;-87
2022/02/11 10:03:05;;;;;;;8.48;7.60;;;15.40;1.00;;;;;;5075472;28;20206;-88
2022/02/11 10:05:33;;;;;;;9.55;7.07;;;13.50;1.00;;;;;;5100722;28;20205;-87
2022/02/11 10:08:01;;;;;;;9.75;6.43;;;16.30;1.00;;;;;;5096290;28;20206;-88
2022/02/11 10:10:52;;;;;;;7.47;4.43;;;17.20;1.00;;;;;;5094899;28;20676;-88
2022/02/11 10:13:21;;;;;;;8.98;4.65;;;19.20;1.00;;;;;;5082137;28;20259;-87
2022/02/11 10:15:49;;;;;;;7.07;4.07;;;22.20;1.00;;;;;;5094963;28;20202;-87
2022/02/11 10:18:20;;;;;;;8.27;4.13;;;22.30;1.00;;;;;;5093928;28;20730;-71
2022/02/11 10:20:50;;;;;;;4.65;4.10;;;19.00;1.00;;;;;;5096989;28;20554;-69
2022/02/11 10:23:20;;;;;;;8.10;4.30;;;15.70;1.00;;;;;;5087037;28;20197;-78
2022/02/11 10:25:59;;;;;;;7.13;3.88;;;18.60;1.00;;;;;;5111057;28;20680;-87
2022/02/11 10:28:30;;;;;;;6.68;3.58;;;21.70;1.00;;;;;;5099575;28;20677;-87
2022/02/11 10:31:20;;;;;;;3.70;2.85;;;21.00;1.00;;;;;;5105737;28;20560;-87
2022/02/11 10:34:04;;;;;;;7.28;3.03;;;18.50;1.00;;;;;;5093325;28;20227;-87
2022/02/11 10:36:33;;;;;;;4.57;3.13;;;18.30;1.00;;;;;;5094190;28;20668;-85
2022/02/11 10:39:12;;;;;;;12.98;4.70;;;21.30;1.00;;;;;;5093737;28;20278;-75
2022/02/11 10:41:42;;;;;;;5.53;4.43;;;17.90;1.00;;;;;;5095867;28;20209;-87
2022/02/11 10:44:12;;;;;;;9.68;4.38;;;14.30;1.00;;;;;;5094047;28;20201;-86
2022/02/11 10:46:41;;;;;;;4.57;3.15;;;13.80;1.00;;;;;;5098108;28;20209;-87
2022/02/11 10:49:10;;;;;;;10.63;5.05;;;13.70;1.00;;;;;;5093577;28;20205;-87
2022/02/11 10:51:42;;;;;;;6.15;3.45;;;13.90;1.00;;;;;;5108106;28;20200;-85
2022/02/11 10:54:26;;;;;;;5.25;2.97;;;13.40;1.00;;;;;;5101658;28;20209;-87
2022/02/11 10:56:55;;;;;;;5.10;3.50;;;13.40;1.00;;;;;;5114471;28;20227;-86
2022/02/11 10:59:27;;;;;;;11.27;3.78;;;13.20;1.00;;;;;;5110996;28;20251;-80
2022/02/11 11:01:56;;;;;;;7.07;3.42;;;14.10;1.00;;;;;;5099066;28;20244;-81
2022/02/11 11:04:24;;;;;;;3.60;3.28;;;14.30;1.00;;;;;;5093814;28;20628;-81
2022/02/11 11:06:53;;;;;;;4.97;3.78;;;13.40;1.00;;;;;;5111611;28;20265;-87
2022/02/11 11:09:22;;;;;;;7.18;4.03;;;12.60;1.00;;;;;;5113813;28;20197;-87
2022/02/11 11:11:49;;;;;;;6.18;3.50;;;12.50;1.00;;;;;;5095284;28;20209;-86
2022/02/11 11:14:18;;;;;;;5.18;3.05;;;12.10;1.00;;;;;;5093075;28;20206;-87
2022/02/11 11:16:47;;;;;;;8.35;3.08;;;12.30;1.00;;;;;;5092963;28;20205;-88
2022/02/11 11:19:15;;;;;;;6.45;3.38;;;12.90;1.00;;;;;;5093561;28;20286;-85
2022/02/11 11:21:46;;;;;;;4.72;2.97;;;13.40;1.00;;;;;;5093940;28;20696;-86
2022/02/11 11:24:13;;;;;;;17.65;4.32;;;13.60;1.00;;;;;;5112613;28;20205;-84
2022/02/11 11:26:42;;;;;;;4.70;3.42;;;13.80;1.00;;;;;;5096186;28;20266;-85
2022/02/11 11:29:11;;;;;;;5.75;3.80;;;14.10;1.00;;;;;;5092851;28;20206;-85
2022/02/11 11:31:39;;;;;;;8.65;4.15;;;14.10;1.00;;;;;;5097345;28;20618;-83
2022/02/11 11:34:27;;;;;;;10.50;4.63;;;13.10;1.00;;;;;;5109966;28;20265;-83
2022/02/11 11:36:58;;;;;;;6.80;4.15;;;12.60;1.00;;;;;;5106960;28;20208;-83
2022/02/11 11:39:26;;;;;;;8.50;4.05;;;12.20;1.00;;;;;;5102228;28;20330;-70
2022/02/11 11:42:07;;;;;;;7.47;3.70;;;12.00;1.00;;;;;;5099308;28;20258;-81
2022/02/11 11:44:52;;;;;;;10.23;3.70;;;12.00;1.00;;;;;;5112399;28;20253;-75
2022/02/11 11:47:28;;;;;;;8.98;3.90;;;12.20;1.00;;;;;;5111980;27;20208;-82
2022/02/11 11:49:56;;;;;;;10.60;4.72;;;12.30;1.00;;;;;;5101465;28;20240;-85
2022/02/11 11:52:39;;;;;;;5.32;4.05;;;12.60;1.00;;;;;;5092426;28;20251;-83
2022/02/11 11:55:18;;;;;;;8.45;4.35;;;12.60;1.00;;;;;;5092921;28;20201;-86
2022/02/11 11:57:45;;;;;;;9.18;4.38;;;12.80;1.00;;;;;;5092971;28;20251;-86
2022/02/11 12:00:14;;;;;;;6.55;3.83;;;12.80;1.00;;;;;;5077367;28;20283;-87
2022/02/11 12:02:50;;;;;;;6.95;4.00;;;12.90;1.00;;;;;;5076795;28;20206;-88
2022/02/11 12:05:53;;;;;;;7.15;3.33;;;12.70;1.00;;;;;;5092020;28;20209;-88
2022/02/11 12:08:27;;;;;;;6.80;4.13;;;12.90;1.00;;;;;;5092595;28;20223;-86
2022/02/11 12:10:57;;;;;;;6.85;2.80;;;13.20;1.00;;;;;;5092989;28;20197;-87
2022/02/11 12:13:25;;;;;;;8.73;4.13;;;13.50;1.00;;;;;;5092480;28;20288;-81
2022/02/11 12:15:52;;;;;;;6.65;3.97;;;13.70;1.00;;;;;;5092341;28;20254;-88
2022/02/11 12:18:19;;;;;;;6.88;3.70;;;13.70;1.00;;;;;;5092108;28;20209;-87
2022/02/11 12:20:46;;;;;;;9.07;4.57;;;13.70;1.00;;;;;;5091718;28;20641;-80
2022/02/11 12:28:47;;;;;;;6.30;3.70;;;15.20;1.00;;;;;;5090723;28;20327;-85
2022/02/11 12:31:23;;;;;;;5.22;3.13;;;14.50;1.00;;;;;;5092197;28;20276;-86
2022/02/11 12:33:50;;;;;;;8.18;3.28;;;14.00;1.00;;;;;;5075922;28;20665;-84
2022/02/11 12:36:18;;;;;;;7.43;3.25;;;13.80;1.00;;;;;;5092231;28;20201;-85
2022/02/11 12:38:56;;;;;;;8.18;3.25;;;14.10;1.00;;;;;;5092210;28;20283;-85
2022/02/11 12:41:24;;;;;;;7.47;3.90;;;14.40;1.00;;;;;;5080527;28;20260;-86
2022/02/11 12:43:58;;;;;;;6.53;3.28;;;14.40;1.00;;;;;;5089181;28;20267;-85
2022/02/11 12:46:25;;;;;;;5.20;3.13;;;14.40;1.00;;;;;;5091713;28;20243;-85
2022/02/11 12:48:52;;;;;;;3.83;3.38;;;14.10;1.00;;;;;;5091297;28;20681;-83
2022/02/11 12:51:20;;;;;;;4.53;3.63;;;13.40;1.00;;;;;;5091393;28;20209;-86
2022/02/11 12:53:47;;;;;;;5.80;3.30;;;13.20;1.00;;;;;;5077699;28;20210;-82
2022/02/11 12:56:15;;;;;;;6.88;2.95;;;13.00;1.00;;;;;;5090835;28;20201;-82
2022/02/11 12:58:43;;;;;;;3.28;2.97;;;13.00;1.00;;;;;;5085310;28;20198;-83
2022/02/11 13:01:10;;;;;;;7.82;3.72;;;12.90;1.00;;;;;;5088857;28;20205;-83
2022/02/11 13:03:37;;;;;;;3.92;3.17;;;13.00;1.00;;;;;;5091271;28;20209;-84
2022/02/11 13:06:04;;;;;;;4.13;2.67;;;13.00;1.00;;;;;;5096875;28;20238;-83
2022/02/11 13:08:31;;;;;;;4.75;3.08;;;12.90;1.00;;;;;;5099856;28;20209;-83
2022/02/11 13:11:02;;;;;;;6.85;3.30;;;12.70;1.00;;;;;;5110863;28;20208;-85
2022/02/11 13:13:30;;;;;;;6.90;3.78;;;12.70;1.00;;;;;;5098900;28;20330;-82
2022/02/11 13:16:01;;;;;;;4.97;3.85;;;12.50;1.00;;;;;;5091826;28;20223;-81
2022/02/11 13:18:30;;;;;;;6.65;3.22;;;12.40;1.00;;;;;;5091020;28;20205;-83
2022/02/11 13:21:04;;;;;;;7.95;4.10;;;12.10;1.00;;;;;;5098765;28;20233;-82
2022/02/11 13:23:31;;;;;;;7.15;3.83;;;12.40;1.00;;;;;;5094490;28;20212;-82
2022/02/11 13:25:59;;;;;;;7.60;4.45;;;12.50;1.00;;;;;;5105096;28;20201;-83
2022/02/11 13:28:28;;;;;;;8.80;4.25;;;12.60;1.00;;;;;;5094302;28;20213;-84
2022/02/11 13:30:58;;;;;;;5.63;3.53;;;12.50;1.00;;;;;;5086250;28;20287;-85
2022/02/11 13:33:26;;;;;;;8.20;3.78;;;12.40;1.00;;;;;;5115789;28;20262;-81
2022/02/11 13:35:55;;;;;;;6.95;3.60;;;12.40;1.00;;;;;;5075265;28;20263;-82
2022/02/11 13:38:23;;;;;;;10.88;3.63;;;12.40;1.00;;;;;;5100818;28;20217;-82
2022/02/11 13:40:55;;;;;;;9.75;4.43;;;12.40;1.00;;;;;;5108876;28;20221;-84
2022/02/11 13:43:22;;;;;;;10.20;3.20;;;12.40;1.00;;;;;;5102343;28;20208;-72
2022/02/11 13:45:53;;;;;;;6.03;3.97;;;12.00;1.00;;;;;;5109325;28;20209;-81
2022/02/11 13:48:22;;;;;;;7.13;3.00;;;11.90;1.00;;;;;;5101374;28;20205;-82
2022/02/11 13:51:06;;;;;;;6.38;3.22;;;12.00;1.00;;;;;;5097248;28;20282;-84
2022/02/11 13:53:39;;;;;;;8.48;3.30;;;12.20;1.00;;;;;;5089778;28;20248;-81
2022/02/11 13:56:08;;;;;;;7.32;3.28;;;12.30;1.00;;;;;;5107940;28;20699;-85
2022/02/11 13:58:35;;;;;;;5.07;3.45;;;12.30;1.00;;;;;;5104946;28;20631;-83
2022/02/11 14:01:04;;;;;;;5.30;3.42;;;12.40;1.00;;;;;;5101313;28;20250;-75
2022/02/11 14:03:33;;;;;;;8.02;4.43;;;12.80;1.00;;;;;;5105399;28;20284;-84
2022/02/11 14:06:02;;;;;;;6.68;4.05;;;13.10;1.00;;;;;;5115248;28;20262;-80
2022/02/11 14:08:46;;;;;;;4.75;3.33;;;13.30;1.00;;;;;;5104659;28;20201;-72
2022/02/11 14:11:15;;;;;;;6.47;3.55;;;13.30;1.00;;;;;;5094282;28;20235;-86
2022/02/11 14:13:42;;;;;;;7.10;3.30;;;13.10;1.00;;;;;;5107263;28;20664;-84
2022/02/11 14:16:10;;;;;;;4.47;3.20;;;13.10;1.00;;;;;;5109504;28;20198;-84
2022/02/11 14:18:41;;;;;;;6.90;4.05;;;13.20;1.00;;;;;;5094640;28;20236;-82
2022/02/11 14:21:11;;;;;;;5.05;3.35;;;13.30;1.00;;;;;;5093327;28;20237;-85
2022/02/11 14:23:38;;;;;;;5.53;3.47;;;13.20;1.00;;;;;;5082029;28;20206;-81
2022/02/11 14:26:05;;;;;;;8.38;3.85;;;13.10;1.00;;;;;;5083689;28;20209;-82
2022/02/11 14:28:32;;;;;;;7.97;3.78;;;13.30;1.00;;;;;;5106077;28;20258;-82
2022/02/11 14:30:59;;;;;;;8.32;4.18;;;12.80;1.00;;;;;;5100453;28;20661;-83
2022/02/11 14:33:26;;;;;;;4.10;3.58;;;12.80;1.00;;;;;;5095265;28;20205;-83
2022/02/11 14:35:54;;;;;;;5.05;2.90;;;12.70;1.00;;;;;;5093289;28;20205;-84
2022/02/11 14:38:21;;;;;;;9.32;5.25;;;12.20;1.00;;;;;;5093534;28;20198;-82
2022/02/11 14:43:33;;;;;;;10.30;2.95;;;11.80;1.00;;;;;;5114211;28;20208;-85
2022/02/11 14:46:00;;;;;;;3.42;2.58;;;11.70;1.00;;;;;;5102049;28;20279;-80
2022/02/11 14:48:27;;;;;;;3.42;2.63;;;11.70;1.00;;;;;;5094177;28;20201;-85
2022/02/11 14:50:55;;;;;;;5.15;2.63;;;11.50;1.00;;;;;;5093369;28;20197;-80
2022/02/11 14:53:22;;;;;;;4.85;3.22;;;11.40;1.00;;;;;;5099566;28;20280;-73
2022/02/11 14:55:49;;;;;;;5.20;3.08;;;11.60;1.00;;;;;;5107884;28;20745;-87
2022/02/11 14:58:16;;;;;;;4.35;2.85;;;11.90;1.00;;;;;;5097210;28;20732;-84
2022/02/11 15:00:43;;;;;;;4.53;3.47;;;12.10;1.00;;;;;;5097609;28;20282;-79
2022/02/11 15:03:10;;;;;;;5.78;3.38;;;12.40;1.00;;;;;;5112879;28;20234;-84
2022/02/11 15:05:37;;;;;;;3.42;3.13;;;12.70;1.00;;;;;;5109604;28;20206;-83
2022/02/11 15:08:06;;;;;;;5.45;3.63;;;13.00;1.00;;;;;;5092751;28;20224;-85
2022/02/11 15:10:33;;;;;;;3.83;2.78;;;13.00;1.00;;;;;;5110903;28;20197;-83
2022/02/11 15:13:00;;;;;;;7.95;3.17;;;12.70;1.00;;;;;;5113924;28;20230;-78
2022/02/11 15:15:29;;;;;;;3.35;3.05;;;12.60;1.00;;;;;;5110788;28;20201;-81
2022/02/11 15:17:57;;;;;;;7.35;3.78;;;12.20;1.00;;;;;;5103023;28;20688;-79
2022/02/11 15:20:24;;;;;;;7.78;3.58;;;12.10;1.00;;;;;;5112798;28;20258;-80
2022/02/11 15:22:51;;;;;;;5.57;2.95;;;11.80;1.00;;;;;;5113601;28;20205;-84
2022/02/11 15:25:20;;;;;;;6.13;3.35;;;11.70;1.00;;;;;;5099368;28;20205;-81
2022/02/11 15:27:47;;;;;;;3.10;2.80;;;11.70;1.00;;;;;;5113430;28;20296;-85
2022/02/11 15:30:14;;;;;;;4.07;2.85;;;11.80;1.00;;;;;;5113023;28;20221;-81
2022/02/11 15:32:42;;;;;;;3.72;2.80;;;11.90;1.00;;;;;;5113353;28;20209;-86
2022/02/11 15:35:09;;;;;;;7.25;3.00;;;11.80;1.00;;;;;;5111528;28;20212;-81
2022/02/11 15:37:36;;;;;;;7.53;3.25;;;11.80;1.00;;;;;;5100541;28;20265;-83
2022/02/11 15:40:05;;;;;;;5.78;3.30;;;11.70;1.00;;;;;;5112621;28;20712;-85
2022/02/11 15:42:34;;;;;;;3.57;2.87;;;11.80;1.00;;;;;;5105660;28;20254;-85
2022/02/11 15:45:01;;;;;;;8.93;3.63;;;11.90;1.00;;;;;;5105612;28;20235;-86
2022/02/11 15:47:28;;;;;;;11.82;4.10;;;12.00;1.00;;;;;;5103577;28;20673;-77
2022/02/11 15:49:56;;;;;;;6.63;3.83;;;11.90;1.00;;;;;;5113096;28;20258;-82
2022/02/11 15:52:23;;;;;;;6.47;3.90;;;11.70;1.00;;;;;;5108805;28;20209;-84
2022/02/11 15:54:50;;;;;;;5.53;4.15;;;11.70;1.00;;;;;;5094921;28;20209;-83
2022/02/11 15:57:18;;;;;;;4.25;3.30;;;11.60;1.00;;;;;;5092162;28;20209;-77
2022/02/11 15:59:46;;;;;;;4.65;3.88;;;11.60;1.00;;;;;;5092283;28;20232;-83
2022/02/11 16:02:13;;;;;;;6.15;3.58;;;11.60;1.00;;;;;;5071685;28;20202;-78
2022/02/11 16:04:40;;;;;;;5.40;3.33;;;11.60;1.00;;;;;;5084158;28;20258;-84
2022/02/11 16:07:07;;;;;;;3.47;3.03;;;11.50;1.00;;;;;;5092260;28;20205;-84
2022/02/11 16:09:34;;;;;;;4.65;3.80;;;11.50;1.00;;;;;;5092587;28;20216;-77
2022/02/11 16:12:05;;;;;;;5.47;3.93;;;11.40;1.00;;;;;;5092381;28;20197;-84
2022/02/11 16:14:32;;;;;;;6.10;3.73;;;11.40;1.00;;;;;;5094741;28;20202;-83